createdAt,value
2024-03-01T00:01:35.363Z,56.64
2024-03-01T00:04:03.094Z,56.14
2024-03-01T00:06:33.072Z,55.83
2024-03-01T00:09:01.383Z,55.19
2024-03-01T00:11:32.016Z,55.37
2024-03-01T00:14:00.159Z,55.75
2024-03-01T00:16:28.038Z,54.70
2024-03-01T00:18:56.469Z,54.89
2024-03-01T00:21:25.144Z,55.47
2024-03-01T00:23:53.954Z,54.49
2024-03-01T00:26:22.034Z,56.49
2024-03-01T00:28:49.717Z,56.00
2024-03-01T00:31:17.938Z,56.28
2024-03-01T00:33:45.788Z,54.93
2024-03-01T00:36:13.438Z,56.08
2024-03-01T00:38:42.401Z,55.69
2024-03-01T00:41:13.062Z,55.50
2024-03-01T00:43:51.561Z,57.06
2024-03-01T00:46:19.615Z,57.36
2024-03-01T00:48:49.167Z,58.02
2024-03-01T00:51:19.357Z,58.23
2024-03-01T00:53:56.255Z,58.04
2024-03-01T00:56:24.093Z,57.65
2024-03-01T00:58:52.289Z,58.55
2024-03-01T01:01:22.649Z,59.52
2024-03-01T01:03:50.826Z,59.12
2024-03-01T01:06:20.209Z,59.13
2024-03-01T01:08:48.553Z,58.88
2024-03-01T01:11:16.438Z,58.77
2024-03-01T01:13:46.281Z,58.88
2024-03-01T01:16:14.708Z,58.31
2024-03-01T01:18:42.757Z,59.27
2024-03-01T01:21:11.970Z,58.09
2024-03-01T01:23:40.217Z,58.98
2024-03-01T01:26:08.739Z,58.13
2024-03-01T01:28:36.849Z,58.50
2024-03-01T01:31:08.859Z,58.99
2024-03-01T01:33:42.462Z,59.84
2024-03-01T01:36:10.216Z,59.43
2024-03-01T01:38:38.226Z,60.28
2024-03-01T01:41:08.400Z,60.66
2024-03-01T01:43:35.943Z,60.38
2024-03-01T01:46:03.339Z,59.67
2024-03-01T01:48:30.660Z,60.03
2024-03-01T01:50:59.654Z,60.79
2024-03-01T01:53:27.843Z,62.16
2024-03-01T01:55:59.223Z,61.42
2024-03-01T02:04:52.389Z,61.99
2024-03-01T02:07:19.792Z,62.66
2024-03-01T02:09:52.297Z,62.12
2024-03-01T02:12:19.746Z,62.50
2024-03-01T02:14:48.259Z,62.51
2024-03-01T02:17:15.641Z,62.48
2024-03-01T02:22:47.544Z,62.72
2024-03-01T02:25:15.040Z,61.56
2024-03-01T02:27:45.812Z,61.69
2024-03-01T02:30:14.554Z,62.65
2024-03-01T02:32:44.125Z,61.96
2024-03-01T02:35:11.465Z,63.37
2024-03-01T02:37:40.934Z,64.70
2024-03-01T02:40:13.673Z,65.14
2024-03-01T02:42:42.695Z,63.86
2024-03-01T02:45:11.147Z,64.00
2024-03-01T02:47:39.920Z,64.02
2024-03-01T02:50:09.973Z,63.45
2024-03-01T02:52:37.417Z,63.18
2024-03-01T02:55:05.895Z,64.50
2024-03-01T02:57:33.348Z,63.04
2024-03-01T03:00:00.687Z,63.89
2024-03-01T03:02:28.085Z,63.67
2024-03-01T03:04:55.985Z,64.68
2024-03-01T03:07:23.447Z,64.45
2024-03-01T03:09:52.203Z,65.20
2024-03-01T03:12:19.862Z,65.39
2024-03-01T03:14:47.758Z,64.74
2024-03-01T03:17:15.306Z,65.04
2024-03-01T03:19:44.559Z,64.51
2024-03-01T03:22:12.165Z,64.44
2024-03-01T03:24:39.886Z,64.60
2024-03-01T03:27:07.478Z,63.61
2024-03-01T03:29:35.004Z,64.32
2024-03-01T03:32:02.181Z,66.68
2024-03-01T03:34:29.445Z,66.91
2024-03-01T03:36:57.035Z,66.38
2024-03-01T03:39:30.000Z,66.05
2024-03-01T03:41:57.143Z,65.44
2024-03-01T03:44:26.386Z,65.33
2024-03-01T03:46:55.041Z,65.94
2024-03-01T03:49:22.609Z,67.00
2024-03-01T03:51:50.180Z,66.34
2024-03-01T03:54:18.956Z,66.33
2024-03-01T03:56:46.392Z,65.98
2024-03-01T03:59:17.903Z,65.74
2024-03-01T04:01:46.095Z,67.21
2024-03-01T04:04:17.462Z,66.09
2024-03-01T04:06:44.601Z,66.94
2024-03-01T04:09:12.379Z,66.43
2024-03-01T04:11:39.845Z,67.35
2024-03-01T04:14:07.014Z,66.90
2024-03-01T04:16:34.151Z,66.40
2024-03-01T04:19:02.154Z,66.93
2024-03-01T04:21:29.670Z,67.18
2024-03-01T04:23:57.550Z,66.84
2024-03-01T04:26:24.712Z,65.91
2024-03-01T04:28:52.373Z,67.16
2024-03-01T04:31:21.398Z,68.39
2024-03-01T04:33:49.238Z,68.10
2024-03-01T04:36:16.910Z,68.34
2024-03-01T04:38:44.311Z,66.55
2024-03-01T04:41:11.846Z,63.91
2024-03-01T04:43:39.470Z,66.39
2024-03-01T04:46:06.901Z,64.23
2024-03-01T04:48:34.017Z,64.76
2024-03-01T04:51:01.577Z,66.57
2024-03-01T04:53:28.638Z,62.93
2024-03-01T04:55:56.159Z,63.52
2024-03-01T04:58:23.472Z,64.60
2024-03-01T05:00:51.198Z,65.30
2024-03-01T05:03:18.914Z,64.68
2024-03-01T05:05:47.163Z,62.19
2024-03-01T05:08:15.484Z,63.60
2024-03-01T05:10:44.157Z,63.11
2024-03-01T05:13:12.280Z,62.91
2024-03-01T05:15:40.221Z,64.29
2024-03-01T05:18:09.019Z,63.33
2024-03-01T05:20:37.331Z,65.53
2024-03-01T05:23:05.457Z,65.29
2024-03-01T05:25:34.203Z,65.81
2024-03-01T05:28:02.901Z,65.95
2024-03-01T05:30:41.967Z,66.60
2024-03-01T05:33:17.294Z,65.97
2024-03-01T05:35:45.597Z,66.57
2024-03-01T05:38:13.303Z,66.89
2024-03-01T05:40:47.085Z,67.54
2024-03-01T05:43:21.032Z,68.81
2024-03-01T05:45:49.360Z,69.75
2024-03-01T05:48:17.552Z,68.67
2024-03-01T05:50:45.338Z,68.28
2024-03-01T05:53:18.329Z,68.52
2024-03-01T05:55:52.133Z,68.94
2024-03-01T05:58:21.301Z,69.53
2024-03-01T06:00:48.963Z,68.01
2024-03-01T06:03:16.561Z,66.86
2024-03-01T06:05:44.065Z,67.23
2024-03-01T06:08:11.195Z,67.27
2024-03-01T06:10:38.885Z,69.36
2024-03-01T06:13:06.396Z,67.96
2024-03-01T06:15:34.053Z,67.38
2024-03-01T06:18:01.645Z,68.07
2024-03-01T06:20:29.584Z,67.59
2024-03-01T06:23:00.007Z,68.48
2024-03-01T06:25:27.516Z,67.33
2024-03-01T06:27:55.674Z,66.50
2024-03-01T06:30:23.320Z,66.83
2024-03-01T06:32:50.721Z,67.14
2024-03-01T06:35:18.420Z,66.44
2024-03-01T06:37:46.047Z,67.57
2024-03-01T06:40:13.456Z,68.07
2024-03-01T06:42:41.058Z,67.09
2024-03-01T06:45:08.739Z,67.01
2024-03-01T06:47:36.379Z,67.87
2024-03-01T06:50:03.956Z,65.87
2024-03-01T06:52:31.721Z,66.40
2024-03-01T06:54:59.403Z,66.36
2024-03-01T06:57:29.983Z,65.80
2024-03-01T07:00:09.766Z,66.25
2024-03-01T07:08:32.897Z,64.39
2024-03-01T07:14:11.610Z,64.19
2024-03-01T07:16:52.564Z,64.23
2024-03-01T07:19:23.513Z,64.22
2024-03-01T07:24:48.586Z,63.64
2024-03-01T07:27:20.090Z,62.93
2024-03-01T07:29:49.245Z,62.70
2024-03-01T07:32:18.872Z,62.66
2024-03-01T07:34:46.804Z,62.22
2024-03-01T07:37:14.464Z,62.41
2024-03-01T07:42:37.305Z,62.82
2024-03-01T07:48:04.872Z,62.62
2024-03-01T07:50:33.830Z,63.09
2024-03-01T07:53:01.715Z,63.80
2024-03-01T07:55:29.964Z,62.44
2024-03-01T07:58:00.776Z,61.72
2024-03-01T08:00:28.743Z,62.84
2024-03-01T08:02:57.678Z,64.22
2024-03-01T08:05:25.536Z,61.81
2024-03-01T08:07:54.045Z,63.95
2024-03-01T08:10:21.952Z,61.88
2024-03-01T08:12:49.914Z,62.06
2024-03-01T08:18:13.218Z,62.46
2024-03-01T08:20:43.182Z,60.82
2024-03-01T08:23:20.921Z,61.15
2024-03-01T08:25:51.648Z,58.70
2024-03-01T08:28:19.452Z,59.87
2024-03-01T08:30:46.964Z,60.33
2024-03-01T08:33:14.021Z,61.99
2024-03-01T08:35:41.761Z,60.05
2024-03-01T08:38:08.767Z,58.73
2024-03-01T08:40:35.877Z,59.93
2024-03-01T08:43:03.293Z,60.20
2024-03-01T08:45:30.950Z,60.44
2024-03-01T08:47:58.297Z,60.61
2024-03-01T08:50:25.574Z,59.93
2024-03-01T08:52:53.046Z,59.20
2024-03-01T08:55:20.202Z,59.20
2024-03-01T08:57:50.190Z,61.22
2024-03-01T09:00:17.788Z,61.59
2024-03-01T09:02:44.983Z,61.09
2024-03-01T09:05:12.274Z,61.27
2024-03-01T09:07:39.640Z,62.42
2024-03-01T09:10:07.051Z,63.96
2024-03-01T09:12:34.631Z,63.41
2024-03-01T09:15:01.737Z,61.86
2024-03-01T09:17:28.918Z,62.83
2024-03-01T09:19:55.994Z,61.59
2024-03-01T09:22:23.458Z,60.30
2024-03-01T09:24:50.764Z,62.19
2024-03-01T09:27:18.484Z,63.02
2024-03-01T09:29:50.210Z,62.95
2024-03-01T09:32:20.489Z,61.44
2024-03-01T09:34:51.589Z,63.39
2024-03-01T09:37:20.605Z,60.85
2024-03-01T09:39:48.993Z,61.17
2024-03-01T09:42:16.218Z,62.78
2024-03-01T09:44:45.989Z,61.54
2024-03-01T09:47:14.374Z,60.81
2024-03-01T09:49:42.904Z,61.44
2024-03-01T09:52:11.149Z,62.63
2024-03-01T09:54:39.002Z,61.10
2024-03-01T09:57:06.517Z,61.89
2024-03-01T09:59:34.345Z,62.27
2024-03-01T10:02:02.601Z,63.16
2024-03-01T10:04:33.276Z,62.33
2024-03-01T10:07:01.120Z,61.47
2024-03-01T10:09:28.656Z,61.20
2024-03-01T10:11:56.221Z,60.77
2024-03-01T10:14:23.746Z,60.65
2024-03-01T10:16:51.064Z,61.35
2024-03-01T10:19:19.056Z,61.13
2024-03-01T10:21:46.850Z,59.69
2024-03-01T10:24:14.225Z,60.55
2024-03-01T10:26:41.341Z,63.66
2024-03-01T10:29:09.067Z,63.46
2024-03-01T10:31:36.237Z,59.96
2024-03-01T10:34:03.721Z,59.75
2024-03-01T10:36:31.005Z,58.57
2024-03-01T10:38:58.556Z,57.88
2024-03-01T10:41:28.268Z,57.03
2024-03-01T10:43:56.660Z,59.34
2024-03-01T10:46:24.562Z,58.04
2024-03-01T10:48:51.654Z,57.23
2024-03-01T10:51:19.236Z,56.53
2024-03-01T10:53:47.004Z,56.56
2024-03-01T10:56:14.159Z,56.48
2024-03-01T10:58:42.054Z,56.24
2024-03-01T11:01:09.757Z,56.13
2024-03-01T11:03:37.212Z,56.25
2024-03-01T11:06:04.724Z,57.42
2024-03-01T11:08:32.418Z,60.05
2024-03-01T11:11:01.047Z,58.65
2024-03-01T11:13:30.233Z,56.05
2024-03-01T11:15:58.693Z,57.14
2024-03-01T11:18:27.362Z,57.25
2024-03-01T11:20:58.290Z,56.01
2024-03-01T11:23:25.933Z,55.06
2024-03-01T11:25:59.842Z,57.26
2024-03-01T11:28:28.013Z,56.21
2024-03-01T11:30:55.433Z,55.84
2024-03-01T11:33:22.914Z,55.09
2024-03-01T11:35:50.788Z,55.20
2024-03-01T11:38:18.171Z,53.92
2024-03-01T11:40:45.969Z,53.73
2024-03-01T11:43:13.742Z,53.10
2024-03-01T11:45:41.609Z,55.30
2024-03-01T11:48:08.800Z,55.03
2024-03-01T11:50:40.349Z,57.27
2024-03-01T11:53:07.782Z,57.72
2024-03-01T11:55:35.267Z,55.92
2024-03-01T11:58:02.671Z,55.55
2024-03-01T12:00:30.008Z,53.95
2024-03-01T12:02:57.374Z,54.47
2024-03-01T12:05:24.686Z,53.95
2024-03-01T12:07:52.398Z,53.85
2024-03-01T12:10:19.850Z,53.75
2024-03-01T12:12:47.260Z,53.64
2024-03-01T12:15:14.949Z,54.48
2024-03-01T12:17:42.682Z,54.84
2024-03-01T12:20:09.989Z,56.00
2024-03-01T12:22:37.475Z,54.31
2024-03-01T12:25:05.150Z,54.00
2024-03-01T12:27:32.526Z,54.55
2024-03-01T12:30:00.765Z,54.92
2024-03-01T12:32:28.434Z,55.53
2024-03-01T12:34:56.360Z,54.29
2024-03-01T12:37:24.389Z,54.90
2024-03-01T12:39:52.316Z,56.82
2024-03-01T12:42:20.520Z,55.83
2024-03-01T12:44:48.829Z,55.28
2024-03-01T12:47:16.590Z,53.90
2024-03-01T12:49:44.324Z,52.79
2024-03-01T12:52:12.525Z,54.00
2024-03-01T12:54:40.445Z,54.65
2024-03-01T12:57:08.609Z,54.08
2024-03-01T12:59:38.368Z,54.62
2024-03-01T13:02:07.626Z,53.87
2024-03-01T13:04:36.839Z,51.28
2024-03-01T13:07:04.735Z,51.54
2024-03-01T13:09:32.532Z,52.93
2024-03-01T13:12:00.288Z,50.68
2024-03-01T13:14:34.591Z,52.39
2024-03-01T13:17:02.611Z,51.44
2024-03-01T13:19:31.332Z,50.73
2024-03-01T13:21:59.090Z,50.22
2024-03-01T13:24:26.913Z,51.50
2024-03-01T13:26:55.559Z,51.98
2024-03-01T13:29:27.602Z,50.80
2024-03-01T13:32:03.633Z,50.16
2024-03-01T13:34:43.350Z,49.03
2024-03-01T13:37:17.590Z,49.35
2024-03-01T13:39:46.943Z,50.33
2024-03-01T13:42:26.979Z,49.27
2024-03-01T13:45:11.063Z,49.95
2024-03-01T13:47:38.900Z,49.53
2024-03-01T13:50:06.925Z,50.43
2024-03-01T13:52:39.060Z,50.75
2024-03-01T13:55:11.600Z,51.20
2024-03-01T13:57:39.547Z,50.33
2024-03-01T14:00:10.498Z,51.36
2024-03-01T14:02:38.214Z,49.27
2024-03-01T14:05:08.119Z,49.19
2024-03-01T14:07:35.902Z,48.06
2024-03-01T14:10:03.217Z,47.29
2024-03-01T14:12:31.619Z,46.80
2024-03-01T14:14:59.060Z,47.14
2024-03-01T14:17:26.279Z,46.19
2024-03-01T14:19:53.950Z,47.10
2024-03-01T14:24:52.060Z,45.13
2024-03-01T14:27:20.008Z,44.56
2024-03-01T14:29:47.367Z,45.67
2024-03-01T14:32:14.530Z,45.71
2024-03-01T14:34:42.101Z,43.17
2024-03-01T14:37:12.573Z,43.49
2024-03-01T14:39:39.765Z,44.97
2024-03-01T14:42:07.185Z,42.90
2024-03-01T14:44:34.838Z,42.41
2024-03-01T14:47:02.247Z,43.76
2024-03-01T14:49:30.080Z,42.65
2024-03-01T14:51:57.528Z,43.53
2024-03-01T14:54:24.778Z,41.84
2024-03-01T14:56:52.371Z,43.70
2024-03-01T14:59:19.966Z,40.34
2024-03-01T15:01:47.613Z,43.35
2024-03-01T15:04:15.131Z,41.53
2024-03-01T15:06:42.667Z,40.08
2024-03-01T15:09:11.276Z,41.90
2024-03-01T15:11:39.319Z,42.05
2024-03-01T15:14:07.017Z,40.41
2024-03-01T15:16:34.605Z,39.86
2024-03-01T15:19:02.680Z,39.86
2024-03-01T15:21:30.435Z,40.49
2024-03-01T15:23:58.666Z,40.84
2024-03-01T15:26:30.221Z,41.85
2024-03-01T15:28:58.197Z,41.33
2024-03-01T15:31:26.846Z,40.58
2024-03-01T15:33:54.915Z,39.69
2024-03-01T15:36:23.675Z,40.63
2024-03-01T15:38:51.325Z,40.98
2024-03-01T15:41:18.613Z,42.18
2024-03-01T15:43:46.174Z,42.87
2024-03-01T15:46:13.727Z,44.42
2024-03-01T15:48:41.452Z,44.36
2024-03-01T15:51:09.210Z,44.64
2024-03-01T15:53:37.055Z,44.49
2024-03-01T15:56:04.646Z,45.98
2024-03-01T15:58:32.010Z,45.62
2024-03-01T16:00:59.556Z,45.05
2024-03-01T16:03:27.233Z,46.56
2024-03-01T16:05:54.632Z,46.89
2024-03-01T16:08:24.544Z,47.02
2024-03-01T16:10:52.615Z,48.20
2024-03-01T16:13:20.018Z,48.63
2024-03-01T16:15:48.898Z,48.58
2024-03-01T16:18:20.749Z,48.93
2024-03-01T16:20:48.287Z,49.58
2024-03-01T16:23:15.789Z,48.42
2024-03-01T16:25:43.102Z,48.80
2024-03-01T16:28:13.265Z,48.09
2024-03-01T16:30:40.722Z,48.48
2024-03-01T16:33:08.641Z,48.79
2024-03-01T16:35:39.055Z,49.89
2024-03-01T16:38:06.394Z,50.42
2024-03-01T16:40:34.342Z,49.64
2024-03-01T16:43:02.680Z,49.29
2024-03-01T16:45:30.422Z,49.87
2024-03-01T16:47:58.575Z,49.12
2024-03-01T16:50:26.366Z,50.37
2024-03-01T16:52:55.079Z,49.65
2024-03-01T16:55:24.305Z,50.48
2024-03-01T16:57:51.996Z,50.84
2024-03-01T17:00:19.616Z,50.34
2024-03-01T17:02:47.172Z,51.03
2024-03-01T17:05:14.910Z,51.84
2024-03-01T17:07:42.914Z,51.54
2024-03-01T17:10:10.219Z,52.25
2024-03-01T17:12:38.132Z,52.41
2024-03-01T17:15:07.014Z,51.43
2024-03-01T17:17:35.770Z,52.08
2024-03-01T17:20:06.062Z,51.86
2024-03-01T17:22:34.146Z,52.17
2024-03-01T17:25:11.447Z,52.03
2024-03-01T17:27:39.502Z,52.13
2024-03-01T17:30:10.876Z,51.54
2024-03-01T17:32:47.354Z,51.99
2024-03-01T17:38:15.415Z,52.70
2024-03-01T17:40:44.064Z,52.17
2024-03-01T17:43:17.822Z,52.07
2024-03-01T17:45:45.836Z,51.36
2024-03-01T17:48:17.073Z,51.97
2024-03-01T17:50:49.472Z,51.80
2024-03-01T17:53:24.182Z,51.96
2024-03-01T17:55:52.612Z,52.35
2024-03-01T17:58:20.576Z,52.68
2024-03-01T18:00:51.366Z,52.41
2024-03-01T18:03:19.363Z,53.50
2024-03-01T18:05:47.726Z,52.82
2024-03-01T18:08:15.457Z,52.29
2024-03-01T18:10:46.206Z,52.05
2024-03-01T18:13:15.274Z,51.47
2024-03-01T18:15:45.622Z,51.70
2024-03-01T18:18:16.814Z,51.43
2024-03-01T18:20:44.684Z,49.96
2024-03-01T18:23:12.722Z,51.07
2024-03-01T18:25:40.462Z,49.80
2024-03-01T18:28:08.005Z,51.38
2024-03-01T18:30:41.254Z,51.12
2024-03-01T18:33:08.647Z,51.36
2024-03-01T18:35:39.456Z,51.09
2024-03-01T18:38:10.331Z,51.25
2024-03-01T18:40:37.598Z,49.99
2024-03-01T18:43:07.272Z,50.67
2024-03-01T18:45:34.451Z,51.08
2024-03-01T18:48:01.566Z,51.21
2024-03-01T18:50:28.940Z,51.10
2024-03-01T18:52:56.761Z,50.73
2024-03-01T18:55:26.148Z,51.46
2024-03-01T18:57:54.079Z,50.29
2024-03-01T19:00:23.077Z,50.90
2024-03-01T19:02:53.673Z,52.53
2024-03-01T19:05:21.552Z,51.64
2024-03-01T19:07:48.820Z,51.62
2024-03-01T19:10:16.251Z,52.89
2024-03-01T19:12:45.194Z,53.46
2024-03-01T19:15:13.401Z,52.24
2024-03-01T19:17:44.100Z,52.54
2024-03-01T19:20:12.664Z,52.88
2024-03-01T19:22:40.843Z,53.75
2024-03-01T19:25:08.641Z,52.79
2024-03-01T19:27:39.488Z,53.28
2024-03-01T19:30:07.469Z,52.77
2024-03-01T19:32:35.224Z,52.84
2024-03-01T19:35:02.876Z,51.77
2024-03-01T19:37:30.233Z,52.70
2024-03-01T19:39:57.664Z,53.68
2024-03-01T19:42:24.869Z,53.50
2024-03-01T19:44:56.317Z,54.58
2024-03-01T19:47:23.685Z,55.19
2024-03-01T19:49:51.037Z,55.15
2024-03-01T19:52:21.640Z,54.87
2024-03-01T19:54:48.919Z,54.60
2024-03-01T19:57:16.224Z,54.23
2024-03-01T19:59:45.599Z,53.76
2024-03-01T20:02:13.097Z,53.79
2024-03-01T20:04:41.160Z,55.18
2024-03-01T20:07:08.710Z,53.56
2024-03-01T20:09:36.162Z,54.25
2024-03-01T20:12:03.659Z,54.31
2024-03-01T20:14:30.851Z,55.14
2024-03-01T20:16:58.488Z,55.18
2024-03-01T20:19:26.207Z,54.54
2024-03-01T20:21:56.520Z,54.87
2024-03-01T20:24:26.232Z,53.85
2024-03-01T20:26:53.340Z,53.73
2024-03-01T20:29:20.872Z,55.34
2024-03-01T20:31:48.633Z,56.20
2024-03-01T20:34:15.960Z,57.24
2024-03-01T20:36:43.994Z,57.09
2024-03-01T20:39:11.999Z,56.67
2024-03-01T20:41:39.908Z,54.81
2024-03-01T20:44:08.042Z,54.99
2024-03-01T20:46:36.425Z,55.73
2024-03-01T20:49:06.567Z,55.92
2024-03-01T20:51:34.366Z,57.80
2024-03-01T20:54:01.814Z,57.60
2024-03-01T20:56:28.957Z,56.64
2024-03-01T20:58:56.253Z,55.71
2024-03-01T21:01:24.116Z,55.79
2024-03-01T21:03:51.466Z,56.53
2024-03-01T21:06:19.045Z,55.95
2024-03-01T21:08:47.604Z,57.71
2024-03-01T21:11:14.945Z,56.61
2024-03-01T21:13:44.402Z,57.74
2024-03-01T21:16:16.383Z,56.90
2024-03-01T21:18:44.045Z,55.68
2024-03-01T21:21:11.451Z,58.04
2024-03-01T21:23:38.301Z,57.39
2024-03-01T21:26:08.306Z,57.46
2024-03-01T21:28:35.400Z,59.14
2024-03-01T21:31:02.419Z,57.76
2024-03-01T21:33:48.261Z,59.06
2024-03-01T21:36:15.821Z,59.83
2024-03-01T21:38:43.874Z,59.25
2024-03-01T21:41:11.510Z,58.64
2024-03-01T21:43:38.713Z,59.18
2024-03-01T21:46:05.769Z,58.32
2024-03-01T21:48:32.980Z,58.10
2024-03-01T21:51:00.739Z,56.84
2024-03-01T21:53:28.746Z,58.62
2024-03-01T21:55:56.009Z,58.02
2024-03-01T21:58:23.185Z,59.78
2024-03-01T22:00:50.635Z,58.97
2024-03-01T22:03:18.006Z,58.12
2024-03-01T22:05:46.331Z,62.43
2024-03-01T22:08:14.845Z,57.43
2024-03-01T22:10:42.828Z,58.84
2024-03-01T22:13:17.512Z,59.24
2024-03-01T22:15:45.230Z,59.20
2024-03-01T22:18:12.384Z,57.80
2024-03-01T22:20:42.684Z,57.70
2024-03-01T22:23:09.992Z,59.93
2024-03-01T22:25:37.447Z,61.08
2024-03-01T22:28:04.700Z,59.92
2024-03-01T22:30:34.748Z,59.47
2024-03-01T22:33:01.910Z,60.05
2024-03-01T22:35:29.365Z,59.54
2024-03-01T22:37:56.870Z,60.41
2024-03-01T22:40:24.181Z,61.43
2024-03-01T22:42:51.661Z,59.97
2024-03-01T22:45:19.057Z,61.15
2024-03-01T22:47:46.007Z,62.02
2024-03-01T22:50:13.975Z,60.38
2024-03-01T22:52:41.728Z,59.85
2024-03-01T22:55:13.492Z,58.90
2024-03-01T22:57:53.266Z,58.73
2024-03-01T23:00:21.413Z,59.71
2024-03-01T23:02:50.134Z,61.87
2024-03-01T23:05:17.963Z,61.44
2024-03-01T23:07:45.917Z,60.24
2024-03-01T23:10:13.944Z,60.43
2024-03-01T23:12:42.311Z,61.09
2024-03-01T23:15:10.326Z,59.08
2024-03-01T23:17:38.127Z,60.34
2024-03-01T23:20:05.684Z,60.91
2024-03-01T23:22:32.923Z,60.59
2024-03-01T23:25:00.409Z,60.06
2024-03-01T23:27:37.325Z,59.83
2024-03-01T23:30:14.376Z,59.35
2024-03-01T23:32:59.226Z,60.96
2024-03-01T23:35:35.011Z,60.55
2024-03-01T23:38:15.078Z,60.32
2024-03-01T23:43:44.188Z,62.10
2024-03-01T23:46:16.421Z,60.14
2024-03-01T23:51:53.482Z,60.65
2024-03-01T23:57:12.616Z,61.65
2024-03-01T23:59:42.971Z,63.24
